createdAt,value
2018-03-22T00:00:27.440Z,2.50
2018-03-22T00:02:55.363Z,2.00
2018-03-22T00:05:23.095Z,2.23
2018-03-22T00:07:51.720Z,2.40
2018-03-22T00:10:19.828Z,2.10
2018-03-22T00:12:48.332Z,2.70
2018-03-22T00:17:50.119Z,2.63
2018-03-22T00:20:18.997Z,2.17
2018-03-22T00:22:48.490Z,2.60
2018-03-22T00:25:17.948Z,2.10
2018-03-22T00:27:46.575Z,2.17
2018-03-22T00:30:15.231Z,1.70
2018-03-22T00:32:42.971Z,2.40
2018-03-22T00:35:10.711Z,1.80
2018-03-22T00:37:40.415Z,2.00
2018-03-22T00:40:09.828Z,1.90
2018-03-22T00:42:38.967Z,3.07
2018-03-22T00:45:07.511Z,2.67
2018-03-22T00:47:36.882Z,2.20
2018-03-22T00:50:08.643Z,2.70
2018-03-22T00:52:38.750Z,2.47
2018-03-22T00:55:07.234Z,2.30
2018-03-22T00:57:35.923Z,2.70
2018-03-22T01:00:04.236Z,2.80
2018-03-22T01:05:08.435Z,2.23
2018-03-22T01:07:37.086Z,2.13
2018-03-22T01:10:05.608Z,1.90
2018-03-22T01:12:34.187Z,2.07
2018-03-22T01:15:02.869Z,1.73
2018-03-22T01:17:30.853Z,3.07
2018-03-22T01:20:01.128Z,2.07
2018-03-22T01:22:28.872Z,1.87
2018-03-22T01:24:58.235Z,2.33
2018-03-22T01:27:26.458Z,2.27
2018-03-22T01:29:56.952Z,2.50
2018-03-22T01:32:25.438Z,2.07
2018-03-22T01:34:54.383Z,2.17
2018-03-22T01:37:23.001Z,1.60
2018-03-22T01:39:51.499Z,1.90
2018-03-22T01:42:20.631Z,1.83
2018-03-22T01:44:48.711Z,1.73
2018-03-22T01:47:19.586Z,1.80
2018-03-22T01:49:48.798Z,1.50
2018-03-22T01:52:17.119Z,2.50
2018-03-22T01:54:45.970Z,2.07
2018-03-22T01:57:14.892Z,2.33
2018-03-22T01:59:42.667Z,2.00
2018-03-22T02:02:10.411Z,2.40
2018-03-22T02:04:39.070Z,1.80
2018-03-22T02:07:07.589Z,1.60
2018-03-22T02:09:36.436Z,1.97
2018-03-22T02:12:06.507Z,1.40
2018-03-22T02:14:35.783Z,1.33
2018-03-22T02:17:03.759Z,2.07
2018-03-22T02:19:32.422Z,1.87
2018-03-22T02:22:01.032Z,1.90
2018-03-22T02:24:29.672Z,1.40
2018-03-22T02:26:59.564Z,1.90
2018-03-22T02:29:28.148Z,1.70
2018-03-22T02:31:57.528Z,1.50
2018-03-22T02:34:25.368Z,1.73
2018-03-22T02:36:53.943Z,2.27
2018-03-22T02:39:22.523Z,1.70
2018-03-22T02:41:50.251Z,1.52
2018-03-22T02:44:18.939Z,1.70
2018-03-22T02:46:48.295Z,2.00
2018-03-22T02:49:16.441Z,1.97
2018-03-22T02:51:44.885Z,1.57
2018-03-22T02:54:12.804Z,1.50
2018-03-22T02:56:43.103Z,1.93
2018-03-22T02:59:11.612Z,1.23
2018-03-22T03:01:41.899Z,1.57
2018-03-22T03:04:09.828Z,1.70
2018-03-22T03:06:37.682Z,1.80
2018-03-22T03:09:06.401Z,1.50
2018-03-22T03:11:35.739Z,1.60
2018-03-22T03:14:04.343Z,1.80
2018-03-22T03:16:32.271Z,1.70
2018-03-22T03:19:02.799Z,1.70
2018-03-22T03:21:30.817Z,1.43
2018-03-22T03:23:58.550Z,1.80
2018-03-22T03:26:26.286Z,1.77
2018-03-22T03:28:55.627Z,2.10
2018-03-22T03:31:23.356Z,1.53
2018-03-22T03:33:52.563Z,1.50
2018-03-22T03:36:20.292Z,1.90
2018-03-22T03:38:48.026Z,1.60
2018-03-22T03:41:17.331Z,1.77
2018-03-22T03:43:45.115Z,1.70
2018-03-22T03:46:13.702Z,1.60
2018-03-22T03:48:41.546Z,1.63
2018-03-22T03:51:10.023Z,1.93
2018-03-22T03:53:37.802Z,1.77
2018-03-22T03:56:06.488Z,1.60
2018-03-22T03:58:35.031Z,1.60
2018-03-22T04:01:03.788Z,1.30
2018-03-22T04:03:33.947Z,1.13
2018-03-22T04:06:03.456Z,1.53
2018-03-22T04:08:31.211Z,1.63
2018-03-22T04:10:58.964Z,1.70
2018-03-22T04:13:29.212Z,1.43
2018-03-22T04:15:56.966Z,1.33
2018-03-22T04:18:24.703Z,1.77
2018-03-22T04:20:53.803Z,1.30
2018-03-22T04:23:21.526Z,1.30
2018-03-22T04:25:50.230Z,1.70
2018-03-22T04:28:19.812Z,1.30
2018-03-22T04:30:48.203Z,1.70
2018-03-22T04:33:15.939Z,2.13
2018-03-22T04:35:44.211Z,1.43
2018-03-22T04:38:12.878Z,1.40
2018-03-22T04:40:40.610Z,1.60
2018-03-22T04:43:09.111Z,1.40
2018-03-22T04:45:37.095Z,1.70
2018-03-22T04:48:05.486Z,1.30
2018-03-22T04:50:35.106Z,1.40
2018-03-22T04:53:03.020Z,1.90
2018-03-22T04:55:30.947Z,1.63
2018-03-22T04:57:59.486Z,1.50
2018-03-22T05:00:27.242Z,1.63
2018-03-22T05:02:55.403Z,1.47
2018-03-22T05:05:23.883Z,1.80
2018-03-22T05:07:52.071Z,1.20
2018-03-22T05:10:19.807Z,1.83
2018-03-22T05:12:49.794Z,1.80
2018-03-22T05:15:19.090Z,1.57
2018-03-22T05:17:47.986Z,1.67
2018-03-22T05:20:15.903Z,1.50
2018-03-22T05:22:43.633Z,1.60
2018-03-22T05:25:12.894Z,1.60
2018-03-22T05:27:40.679Z,1.80
2018-03-22T05:30:08.411Z,1.40
2018-03-22T05:32:36.910Z,2.03
2018-03-22T05:35:06.860Z,1.70
2018-03-22T05:37:35.461Z,1.90
2018-03-22T05:40:04.629Z,1.67
2018-03-22T05:42:32.374Z,2.00
2018-03-22T05:45:00.304Z,2.97
2018-03-22T05:47:28.114Z,2.13
2018-03-22T05:49:56.035Z,1.60
2018-03-22T05:52:24.624Z,1.60
2018-03-22T05:54:53.135Z,1.93
2018-03-22T05:57:20.875Z,1.53
2018-03-22T05:59:50.487Z,1.83
2018-03-22T06:02:19.091Z,1.50
2018-03-22T06:04:46.866Z,1.50
2018-03-22T06:07:14.682Z,1.40
2018-03-22T06:09:43.259Z,1.37
2018-03-22T06:12:11.517Z,1.47
2018-03-22T06:14:40.192Z,1.90
2018-03-22T06:17:08.976Z,1.60
2018-03-22T06:19:37.905Z,1.77
2018-03-22T06:22:06.321Z,1.50
2018-03-22T06:24:35.703Z,1.70
2018-03-22T06:27:03.510Z,1.90
2018-03-22T06:29:31.247Z,1.70
2018-03-22T06:31:59.176Z,1.97
2018-03-22T06:34:28.576Z,2.03
2018-03-22T06:36:56.955Z,1.57
2018-03-22T06:39:24.769Z,1.67
2018-03-22T06:41:52.486Z,1.80
2018-03-22T06:44:20.488Z,1.30
2018-03-22T06:46:49.068Z,1.60
2018-03-22T06:49:18.587Z,1.60
2018-03-22T06:51:46.326Z,1.80
2018-03-22T06:54:14.060Z,1.53
2018-03-22T06:56:43.194Z,1.60
2018-03-22T06:59:12.029Z,1.90
2018-03-22T07:01:44.770Z,1.70
2018-03-22T07:04:13.792Z,1.30
2018-03-22T07:06:42.346Z,2.60
2018-03-22T07:09:11.187Z,1.60
2018-03-22T07:11:39.719Z,1.70
2018-03-22T07:14:11.050Z,1.77
2018-03-22T07:16:39.955Z,1.73
2018-03-22T07:19:07.753Z,1.70
2018-03-22T07:21:36.275Z,1.87
2018-03-22T07:24:04.006Z,2.40
2018-03-22T07:29:07.225Z,2.00
2018-03-22T07:31:37.108Z,1.60
2018-03-22T07:34:04.975Z,1.50
2018-03-22T07:36:32.857Z,1.83
2018-03-22T07:39:00.619Z,1.77
2018-03-22T07:41:29.204Z,1.60
2018-03-22T07:43:57.929Z,1.90
2018-03-22T07:46:25.674Z,1.50
2018-03-22T07:48:53.688Z,1.20
2018-03-22T07:51:21.440Z,2.17
2018-03-22T07:53:50.165Z,2.30
2018-03-22T07:56:18.713Z,2.07
2018-03-22T07:58:47.587Z,2.20
2018-03-22T08:01:16.191Z,2.10
2018-03-22T08:03:44.476Z,2.13
2018-03-22T08:06:12.223Z,1.70
2018-03-22T08:08:39.950Z,1.60
2018-03-22T08:11:08.455Z,2.17
2018-03-22T08:13:37.015Z,1.90
2018-03-22T08:16:05.227Z,2.07
2018-03-22T08:18:35.361Z,2.20
2018-03-22T08:21:03.095Z,1.97
2018-03-22T08:23:31.295Z,1.50
2018-03-22T08:25:59.059Z,2.20
2018-03-22T08:28:27.050Z,1.90
2018-03-22T08:30:56.091Z,1.70
2018-03-22T08:33:23.908Z,2.23
2018-03-22T08:35:52.411Z,1.80
2018-03-22T08:38:20.150Z,1.20
2018-03-22T08:40:48.179Z,2.00
2018-03-22T08:43:15.927Z,2.70
2018-03-22T08:45:43.659Z,2.10
2018-03-22T08:48:12.174Z,2.00
2018-03-22T08:50:39.970Z,1.90
2018-03-22T08:53:07.698Z,1.80
2018-03-22T08:55:36.363Z,1.40
2018-03-22T08:58:04.181Z,2.00
2018-03-22T09:00:32.057Z,1.70
2018-03-22T09:03:00.597Z,1.90
2018-03-22T09:05:28.339Z,1.70
2018-03-22T09:07:57.738Z,1.87
2018-03-22T09:10:27.128Z,1.83
2018-03-22T09:12:55.676Z,1.70
2018-03-22T09:15:23.530Z,1.43
2018-03-22T09:17:51.771Z,1.93
2018-03-22T09:20:20.410Z,2.00
2018-03-22T09:22:48.224Z,1.77
2018-03-22T09:32:20.316Z,1.87
2018-03-22T09:34:48.839Z,1.80
2018-03-22T09:37:16.585Z,1.90
2018-03-22T09:39:44.548Z,1.70
2018-03-22T09:42:14.071Z,1.80
2018-03-22T09:44:41.828Z,1.67
2018-03-22T09:47:09.691Z,1.40
2018-03-22T09:49:37.445Z,1.70
2018-03-22T09:52:05.942Z,1.63
2018-03-22T09:54:34.671Z,4.50
2018-03-22T09:57:02.632Z,2.60
2018-03-22T09:59:30.478Z,3.03
2018-03-22T10:01:58.206Z,2.23
2018-03-22T10:04:30.033Z,2.87
2018-03-22T10:06:58.627Z,2.37
2018-03-22T10:09:26.371Z,2.43
2018-03-22T10:11:54.117Z,1.90
2018-03-22T10:14:21.958Z,2.03
2018-03-22T10:16:49.688Z,2.43
2018-03-22T10:19:18.219Z,3.50
2018-03-22T10:21:45.967Z,2.53
2018-03-22T10:24:13.731Z,1.93
2018-03-22T10:26:41.464Z,1.67
2018-03-22T10:29:10.000Z,1.80
2018-03-22T10:31:37.814Z,2.40
2018-03-22T10:34:07.491Z,1.80
2018-03-22T10:36:35.243Z,2.13
2018-03-22T10:39:03.283Z,1.77
2018-03-22T10:41:32.716Z,2.30
2018-03-22T10:44:01.240Z,2.13
2018-03-22T10:46:29.739Z,1.80
2018-03-22T10:48:57.666Z,2.00
2018-03-22T10:51:25.442Z,2.72
2018-03-22T10:53:53.223Z,1.40
2018-03-22T10:56:21.839Z,1.73
2018-03-22T10:58:49.598Z,1.63
2018-03-22T11:01:22.891Z,2.60
2018-03-22T11:03:54.121Z,1.90
2018-03-22T11:06:21.851Z,1.63
2018-03-22T11:08:49.587Z,1.73
2018-03-22T11:11:17.352Z,2.03
2018-03-22T11:13:45.108Z,1.87
2018-03-22T11:16:13.961Z,1.80
2018-03-22T11:18:41.703Z,1.70
2018-03-22T11:21:10.198Z,1.87
2018-03-22T11:23:39.627Z,1.60
2018-03-22T11:26:07.443Z,1.47
2018-03-22T11:28:35.194Z,1.45
2018-03-22T11:31:03.779Z,2.00
2018-03-22T11:33:32.163Z,1.40
2018-03-22T11:35:59.901Z,1.15
2018-03-22T11:38:27.638Z,1.30
2018-03-22T11:40:56.030Z,1.30
2018-03-22T11:43:23.751Z,1.87
2018-03-22T11:45:52.260Z,1.60
2018-03-22T11:48:20.069Z,1.60
2018-03-22T11:50:49.850Z,1.67
2018-03-22T11:53:17.599Z,1.80
2018-03-22T11:55:45.343Z,1.90
2018-03-22T11:58:14.599Z,2.33
2018-03-22T12:00:42.695Z,2.40
2018-03-22T12:03:11.207Z,2.50
2018-03-22T12:05:38.962Z,1.93
2018-03-22T12:08:07.566Z,1.57
2018-03-22T12:10:36.855Z,2.20
2018-03-22T12:13:04.610Z,1.73
2018-03-22T12:18:08.787Z,1.80
2018-03-22T12:20:38.746Z,1.97
2018-03-22T12:23:08.107Z,2.10
2018-03-22T12:25:36.642Z,2.00
2018-03-22T12:28:04.375Z,2.07
2018-03-22T12:30:32.105Z,1.90
2018-03-22T12:32:59.868Z,2.13
2018-03-22T12:35:28.884Z,1.90
2018-03-22T12:37:56.618Z,1.57
2018-03-22T12:40:24.339Z,2.07
2018-03-22T12:42:52.841Z,3.07
2018-03-22T12:45:20.575Z,1.87
2018-03-22T12:47:50.026Z,1.90
2018-03-22T12:50:18.285Z,1.83
2018-03-22T12:55:20.168Z,2.03
2018-03-22T12:57:47.911Z,2.50
2018-03-22T13:00:16.432Z,1.83
2018-03-22T13:02:44.249Z,2.20
2018-03-22T13:05:15.432Z,1.83
2018-03-22T13:07:43.499Z,2.20
2018-03-22T13:10:11.235Z,1.73
2018-03-22T13:12:40.544Z,1.83
2018-03-22T13:15:08.277Z,1.87
2018-03-22T13:17:37.751Z,2.17
2018-03-22T13:20:06.515Z,2.57
2018-03-22T13:22:34.488Z,1.70
2018-03-22T13:25:02.544Z,2.10
2018-03-22T13:30:02.708Z,1.70
2018-03-22T13:32:31.307Z,1.97
2018-03-22T13:34:59.290Z,1.63
2018-03-22T13:37:27.904Z,1.60
2018-03-22T13:39:55.635Z,1.67
2018-03-22T13:42:24.404Z,1.60
2018-03-22T13:44:52.135Z,1.63
2018-03-22T13:47:19.870Z,1.53
2018-03-22T13:49:49.755Z,1.77
2018-03-22T13:52:17.486Z,2.00
2018-03-22T13:54:45.214Z,1.50
2018-03-22T13:57:14.757Z,1.97
2018-03-22T13:59:42.495Z,1.60
2018-03-22T14:02:10.231Z,2.10
2018-03-22T14:04:39.170Z,2.97
2018-03-22T14:07:07.895Z,2.77
2018-03-22T14:09:35.727Z,1.70
2018-03-22T14:12:03.463Z,2.10
2018-03-22T14:14:32.428Z,1.77
2018-03-22T14:17:00.934Z,2.30
2018-03-22T14:19:29.747Z,1.93
2018-03-22T14:21:59.427Z,2.50
2018-03-22T14:24:27.309Z,1.73
2018-03-22T14:26:55.339Z,2.20
2018-03-22T14:29:23.074Z,2.00
2018-03-22T14:31:50.808Z,1.57
2018-03-22T14:34:19.451Z,2.07
2018-03-22T14:36:47.180Z,2.83
2018-03-22T14:39:15.172Z,1.93
2018-03-22T14:41:43.809Z,2.10
2018-03-22T14:44:11.575Z,2.63
2018-03-22T14:46:39.336Z,1.77
2018-03-22T14:49:07.190Z,2.10
2018-03-22T14:51:34.922Z,2.50
2018-03-22T14:54:02.662Z,2.07
2018-03-22T14:56:30.484Z,2.10
2018-03-22T14:58:58.214Z,2.30
2018-03-22T15:01:26.030Z,1.90
2018-03-22T15:03:53.783Z,2.60
2018-03-22T15:06:21.597Z,1.97
2018-03-22T15:08:49.327Z,1.40
2018-03-22T15:11:17.067Z,1.70
2018-03-22T15:13:45.893Z,2.13
2018-03-22T15:16:13.640Z,2.10
2018-03-22T15:18:43.628Z,1.73
2018-03-22T15:21:11.401Z,2.23
2018-03-22T15:23:40.199Z,2.10
2018-03-22T15:26:07.956Z,1.50
2018-03-22T15:28:36.477Z,1.57
2018-03-22T15:31:04.242Z,1.93
2018-03-22T15:33:31.982Z,1.83
2018-03-22T15:35:59.735Z,1.90
2018-03-22T15:38:27.477Z,2.13
2018-03-22T15:40:55.974Z,1.63
2018-03-22T15:43:23.698Z,1.67
2018-03-22T15:45:51.428Z,2.10
2018-03-22T15:48:19.177Z,1.63
2018-03-22T15:50:46.919Z,1.70
2018-03-22T15:53:14.658Z,1.83
2018-03-22T15:55:43.172Z,2.00
2018-03-22T15:58:10.907Z,2.60
2018-03-22T16:00:39.431Z,2.60
2018-03-22T16:03:07.176Z,1.80
2018-03-22T16:05:34.942Z,2.17
2018-03-22T16:08:02.715Z,2.00
2018-03-22T16:10:30.457Z,1.60
2018-03-22T16:12:58.994Z,2.07
2018-03-22T16:15:26.765Z,2.60
2018-03-22T16:17:54.578Z,2.00
2018-03-22T16:20:22.346Z,1.97
2018-03-22T16:22:50.081Z,2.00
2018-03-22T16:25:18.654Z,1.40
2018-03-22T16:27:46.399Z,1.97
2018-03-22T16:30:14.139Z,1.50
2018-03-22T16:32:41.904Z,2.03
2018-03-22T16:35:09.630Z,2.37
2018-03-22T16:37:38.128Z,2.30
2018-03-22T16:40:05.871Z,1.93
2018-03-22T16:42:33.686Z,1.60
2018-03-22T16:45:01.422Z,2.03
2018-03-22T16:47:29.154Z,1.53
2018-03-22T16:49:57.650Z,1.60
2018-03-22T16:52:25.432Z,1.73
2018-03-22T16:54:53.183Z,1.93
2018-03-22T16:57:20.934Z,2.13
2018-03-22T16:59:49.459Z,2.10
2018-03-22T17:02:17.382Z,2.17
2018-03-22T17:04:45.902Z,2.27
2018-03-22T17:07:13.669Z,2.50
2018-03-22T17:09:41.403Z,3.10
2018-03-22T17:12:09.205Z,1.60
2018-03-22T17:14:36.947Z,2.07
2018-03-22T17:17:04.678Z,1.80
2018-03-22T17:19:33.183Z,1.80
2018-03-22T17:22:00.914Z,1.77
2018-03-22T17:24:29.451Z,2.00
2018-03-22T17:26:57.249Z,1.93
2018-03-22T17:29:25.035Z,1.90
2018-03-22T17:31:53.629Z,2.50
2018-03-22T17:34:21.362Z,2.13
2018-03-22T17:36:51.494Z,2.27
2018-03-22T17:39:20.031Z,1.87
2018-03-22T17:41:49.118Z,2.40
2018-03-22T17:44:19.417Z,1.83
2018-03-22T17:46:47.452Z,1.50
2018-03-22T17:49:17.322Z,1.70
2018-03-22T17:51:45.114Z,2.80
2018-03-22T17:54:12.890Z,2.10
2018-03-22T17:56:40.723Z,1.90
2018-03-22T17:59:08.450Z,2.13
2018-03-22T18:01:36.191Z,1.58
2018-03-22T18:04:06.790Z,2.00
2018-03-22T18:06:36.255Z,2.40
2018-03-22T18:09:04.409Z,1.93
2018-03-22T18:11:32.291Z,1.97
2018-03-22T18:14:00.030Z,2.93
2018-03-22T18:16:28.550Z,1.80
2018-03-22T18:18:56.317Z,2.03
2018-03-22T18:21:26.737Z,2.97
2018-03-22T18:23:54.507Z,1.53
2018-03-22T18:26:22.241Z,1.67
2018-03-22T18:28:50.067Z,1.97
2018-03-22T18:31:17.851Z,2.07
2018-03-22T18:33:45.653Z,2.30
2018-03-22T18:36:13.436Z,2.97
2018-03-22T18:38:42.130Z,3.10
2018-03-22T18:41:10.061Z,1.70
2018-03-22T18:43:37.790Z,2.60
2018-03-22T18:46:05.554Z,2.27
2018-03-22T18:48:33.301Z,1.97
2018-03-22T18:51:01.055Z,2.27
2018-03-22T18:53:28.794Z,2.10
2018-03-22T18:55:56.633Z,1.97
2018-03-22T18:58:24.395Z,2.10
2018-03-22T19:00:52.904Z,2.20
2018-03-22T19:03:20.711Z,1.90
2018-03-22T19:05:48.462Z,2.00
2018-03-22T19:08:16.211Z,2.30
2018-03-22T19:10:44.715Z,1.90
2018-03-22T19:13:12.447Z,2.07
2018-03-22T19:15:40.191Z,2.27
2018-03-22T19:18:08.757Z,3.40
2018-03-22T19:20:39.550Z,2.30
2018-03-22T19:23:08.223Z,3.70
2018-03-22T19:25:36.867Z,3.13
2018-03-22T19:28:05.497Z,3.43
2018-03-22T19:30:34.182Z,2.80
2018-03-22T19:33:02.923Z,3.33
2018-03-22T19:35:31.440Z,2.87
2018-03-22T19:37:59.248Z,3.37
2018-03-22T19:40:31.669Z,3.83
2018-03-22T19:43:11.060Z,2.97
2018-03-22T19:45:44.630Z,3.00
2018-03-22T19:48:12.603Z,4.00
2018-03-22T19:50:40.346Z,3.97
2018-03-22T19:53:08.071Z,4.70
2018-03-22T19:55:44.698Z,6.07
2018-03-22T19:58:12.454Z,3.20
2018-03-22T20:00:42.799Z,3.80
2018-03-22T20:03:12.938Z,4.13
2018-03-22T20:05:40.700Z,3.27
2018-03-22T20:08:08.492Z,3.70
2018-03-22T20:10:36.242Z,4.00
2018-03-22T20:13:04.742Z,3.97
2018-03-22T20:15:34.242Z,3.47
2018-03-22T20:18:03.570Z,3.60
2018-03-22T20:20:31.806Z,4.10
2018-03-22T20:23:03.755Z,3.33
2018-03-22T20:25:32.554Z,4.83
2018-03-22T20:30:48.090Z,3.87
2018-03-22T20:33:15.856Z,5.07
2018-03-22T20:35:43.644Z,3.90
2018-03-22T20:38:11.384Z,3.30
2018-03-22T20:40:39.141Z,3.53
2018-03-22T20:43:06.884Z,2.83
2018-03-22T20:45:34.639Z,2.50
2018-03-22T20:48:02.387Z,3.27
2018-03-22T20:50:30.887Z,2.57
2018-03-22T20:52:58.665Z,2.37
2018-03-22T20:55:26.463Z,1.93
2018-03-22T20:57:54.288Z,2.77
2018-03-22T21:00:22.055Z,3.67
2018-03-22T21:02:49.900Z,3.90
2018-03-22T21:05:17.649Z,4.30
2018-03-22T21:07:47.051Z,3.33
2018-03-22T21:10:16.399Z,13.70
2018-03-22T21:15:20.009Z,5.30
2018-03-22T21:17:47.974Z,5.20
2018-03-22T21:20:15.716Z,7.40
2018-03-22T21:22:43.461Z,5.33
2018-03-22T21:25:11.967Z,3.90
2018-03-22T21:27:39.707Z,4.43
2018-03-22T21:30:07.469Z,6.13
2018-03-22T21:32:35.210Z,4.67
